Ocracoke, NC

6:41 PM EST on January 21, 2017 (GMT -0500)
The Ocracoke Harbor Inn/Silver Lake | | Change Station
Active Advisory: Marine Fog Advisory

Elev 15 ft 35.11 °N, 75.98 °W | Updated 9 seconds ago

Overcast
Overcast
53.9 °F
Feels Like 53.9 °F
N
6.0
Wind Variable Wind from ENE
Gusts 8.0 mph

Today
High -- | Low -- °F
--% Chance of Precip.
Yesterday
High -- | Low -- °F
Precip. -- in
Pressure 29.80 in
Visibility 6.0 miles
Clouds Scattered Clouds 10000 ft
Dew Point 46 °F
Humidity 74%
Rainfall 0.00 in
Snow Depth Not available.
7:09 AM 5:21 PM
Waning Crescent, 31% visible
METAR KHSE 212251Z AUTO 06004KT 6SM BR SCT100 13/12 A2979 RMK AO2 SLP089 T01330117 TSNO
Pressure 29.80 in
Visibility 6.0 miles
Clouds Scattered Clouds 10000 ft
Dew Point 46 °F
Humidity 74%
Rainfall 0.00 in
Snow Depth Not available.
7:09 AM 5:21 PM
Waning Crescent, 31% visible
METAR KHSE 212251Z AUTO 06004KT 6SM BR SCT100 13/12 A2979 RMK AO2 SLP089 T01330117 TSNO

Get Your Daily Forecast Email!

Thanks for signing up!

Be on the lookout for a verification email in your inbox.

You'll start receiving the daily forecast at 8 AM.

×

10-Day Weather Forecast

Almanac

Astronomy

Jan. 21, 2017 Rise Set
Actual Time
Civil Twilight
Nautical Twilight
Astronomical Twilight
Moon
Length of Visible Light
Length of Day
Tomorrow will be .
, % of the Moon is Illuminated

Today's Extremes

State Highs State Lows

Community

WunderPhotos

Upload Photos

1,962,540 photos uploaded!

WunderBlog® & News

Nearby

Air Quality

  Air Quality AQ Index Pollutant
Not available.

Snow Depth

Station Depth Elevation

Earthquake Activity

City Distance Mag. Time & Date
Minimum magnitude displayed is 2.5.

Coastal Water Temperatures

Place Temperature

Stations

Nearby Weather Stations

Station Location Temp. Windchill Dew Point Humidity Wind Precip. Elev Updated Type
                   

Watches & Warnings

Marine Fog Advisory
Issued: 2:00 PM EST Jan. 21, 2017 – National Weather Service

... Dense fog advisory remains in effect until 11 PM EST this
evening...

* visibility... 1 mile or less.

* Winds... southeast 5 to 10 kt.

Precautionary/preparedness actions...

A dense fog advisory means visibilities will frequently be
reduced to less than one mile. Inexperienced mariners...
especially those operating smaller vessels should avoid
navigating in these conditions.

A Small Craft Advisory means that wind speeds of 25 to 33 knots
and/or seas of 6 feet or greater are expected to produce
hazardous wave conditions to small craft. Inexperienced
mariners... especially those operating smaller vessels should
avoid navigating in these conditions.